JFK2 -KPDK
Flight info
| Callsign | JFK2 |
|---|---|
| Flight time | N/A |
| Altitude | VFR |
| Route | |
| Aircraft |
Departure
| Time | N/A |
|---|---|
| Airport | - |
Arrival
| Time | 2026-05-07 02:21 |
|---|---|
| Airport | DeKalb Peachtree Airport (KPDK) |
| Time | Latitude | Longitude | Altitude | Speed | Heading |
|---|---|---|---|---|---|
| 2026-05-07 02:08 | 34.20207 | -84.82668 | 13500 ft | 172 kts | 150° |
| 2026-05-07 02:08 | 34.19177 | -84.81881 | 13510 ft | 182 kts | 150° |
| 2026-05-07 02:08 | 34.18085 | -84.81051 | 13509 ft | 189 kts | 150° |
| 2026-05-07 02:08 | 34.16963 | -84.80200 | 13508 ft | 192 kts | 150° |
| 2026-05-07 02:09 | 34.15825 | -84.79339 | 13508 ft | 194 kts | 150° |
| 2026-05-07 02:09 | 34.14681 | -84.78472 | 13509 ft | 195 kts | 150° |
| 2026-05-07 02:09 | 34.13532 | -84.77603 | 13508 ft | 195 kts | 150° |
| 2026-05-07 02:09 | 34.12379 | -84.76731 | 13509 ft | 196 kts | 150° |
| 2026-05-07 02:10 | 34.11226 | -84.75859 | 13510 ft | 196 kts | 150° |
| 2026-05-07 02:10 | 34.10062 | -84.74981 | 13395 ft | 201 kts | 150° |
| 2026-05-07 02:10 | 34.08845 | -84.74070 | 13106 ft | 210 kts | 150° |
| 2026-05-07 02:10 | 34.07592 | -84.73138 | 12810 ft | 211 kts | 150° |
| 2026-05-07 02:11 | 34.06406 | -84.72251 | 12398 ft | 193 kts | 150° |
| 2026-05-07 02:11 | 34.05295 | -84.71411 | 11998 ft | 185 kts | 150° |
| 2026-05-07 02:11 | 34.04216 | -84.70591 | 11591 ft | 181 kts | 150° |
| 2026-05-07 02:11 | 34.03157 | -84.69784 | 11182 ft | 179 kts | 150° |
| 2026-05-07 02:12 | 34.02242 | -84.68777 | 10749 ft | 179 kts | 129° |
| 2026-05-07 02:12 | 34.01536 | -84.67548 | 10339 ft | 178 kts | 126° |
| 2026-05-07 02:12 | 34.00847 | -84.66318 | 9912 ft | 177 kts | 126° |
| 2026-05-07 02:12 | 34.00239 | -84.65203 | 9349 ft | 144 kts | 125° |
| 2026-05-07 02:13 | 33.99729 | -84.64246 | 8821 ft | 127 kts | 125° |
| 2026-05-07 02:13 | 33.99265 | -84.63366 | 8806 ft | 145 kts | 125° |
| 2026-05-07 02:13 | 33.98638 | -84.62231 | 8810 ft | 177 kts | 126° |
| 2026-05-07 02:13 | 33.97913 | -84.60937 | 8810 ft | 194 kts | 126° |
| 2026-05-07 02:14 | 33.97139 | -84.59562 | 8810 ft | 202 kts | 126° |
| 2026-05-07 02:14 | 33.96341 | -84.58146 | 8810 ft | 206 kts | 126° |
| 2026-05-07 02:14 | 33.95591 | -84.56634 | 8541 ft | 218 kts | 118° |
| 2026-05-07 02:14 | 33.94948 | -84.54929 | 8102 ft | 228 kts | 116° |
| 2026-05-07 02:15 | 33.94310 | -84.53168 | 7665 ft | 231 kts | 114° |
| 2026-05-07 02:15 | 33.93779 | -84.51351 | 7219 ft | 217 kts | 110° |
| 2026-05-07 02:15 | 33.93400 | -84.49867 | 6758 ft | 163 kts | 108° |
| 2026-05-07 02:15 | 33.93109 | -84.48650 | 6295 ft | 143 kts | 108° |
| 2026-05-07 02:16 | 33.92865 | -84.47506 | 5886 ft | 143 kts | 104° |
| 2026-05-07 02:16 | 33.92648 | -84.46344 | 5509 ft | 137 kts | 105° |
| 2026-05-07 02:16 | 33.92428 | -84.45293 | 5350 ft | 132 kts | 109° |
| 2026-05-07 02:16 | 33.92173 | -84.44193 | 5215 ft | 139 kts | 107° |
| 2026-05-07 02:17 | 33.91894 | -84.43072 | 5108 ft | 141 kts | 113° |
| 2026-05-07 02:17 | 33.91561 | -84.41944 | 4928 ft | 147 kts | 110° |
| 2026-05-07 02:17 | 33.91347 | -84.40740 | 4772 ft | 146 kts | 99° |
| 2026-05-07 02:17 | 33.91242 | -84.39540 | 4678 ft | 143 kts | 99° |
| 2026-05-07 02:18 | 33.91069 | -84.38357 | 4431 ft | 140 kts | 104° |
| 2026-05-07 02:18 | 33.90942 | -84.37350 | 3842 ft | 114 kts | 98° |
| 2026-05-07 02:18 | 33.90916 | -84.36430 | 3343 ft | 107 kts | 93° |
| 2026-05-07 02:18 | 33.90918 | -84.35440 | 3025 ft | 118 kts | 91° |
| 2026-05-07 02:19 | 33.90961 | -84.34492 | 2684 ft | 111 kts | 86° |
| 2026-05-07 02:19 | 33.91048 | -84.33594 | 2435 ft | 105 kts | 85° |
| 2026-05-07 02:19 | 33.91108 | -84.32739 | 2251 ft | 100 kts | 89° |
| 2026-05-07 02:19 | 33.91137 | -84.31849 | 2239 ft | 111 kts | 91° |
| 2026-05-07 02:20 | 33.91108 | -84.30893 | 2234 ft | 116 kts | 98° |
| 2026-05-07 02:20 | 33.90811 | -84.30050 | 2181 ft | 99 kts | 134° |
| 2026-05-07 02:20 | 33.90261 | -84.29523 | 1852 ft | 99 kts | 162° |
| 2026-05-07 02:20 | 33.89590 | -84.29381 | 1503 ft | 105 kts | 185° |
| 2026-05-07 02:21 | 33.88887 | -84.29501 | 1192 ft | 107 kts | 199° |
| 2026-05-07 02:21 | 33.88193 | -84.29801 | 1016 ft | 94 kts | 204° |
| 2026-05-07 02:21 | 33.87686 | -84.30034 | 1000 ft | 64 kts | 200° |
| 2026-05-07 02:21 | 33.87390 | -84.30161 | 999 ft | 32 kts | 200° |
| 2026-05-07 02:22 | 33.87224 | -84.30234 | 1002 ft | 26 kts | 200° |
| 2026-05-07 02:22 | 33.87008 | -84.30332 | 1005 ft | 34 kts | 200° |
| 2026-05-07 02:22 | 33.86880 | -84.30414 | 1007 ft | 17 kts | 251° |
| 2026-05-07 02:22 | 33.86899 | -84.30505 | 998 ft | 0 kts | 290° |